Disclaimer

Please do not use the information listed here in-flight or in-navigation, as they are not provided to us by the airports but are provided by volunteers, so they might be outdated.

Search


Regions


Airport information page

Radio informations:
Tower (TWR) - 121.0 MHz
RDO - 5790 MHz
Ground (GND) - 121.9 MHz

Airport informations:
Latitude: 31° 04' 24.00" N
Longitude: 033° 50' 09.00" E
Elevation: 121 feet - 37 meters
Operating hours: From sunrise to sunset (SR-SS)
Operating agency: Civil government, landing fees and diplomatic clearance may be required
Timezone: UTC+2(+3DT) - Dates notified by NOTAM
Fuel: Jet A1, without icing nhibitor.

100/130 MIL Spec, low lead, aviation gasoline (BLUE)

Runway information:
16/34 - 9905 x 148 feet< - >3019 x 45 meters

Recent METARs:
HEAR 131400Z 34004KT 9999 SCT025 22/12 Q1013 NOSIG
HEAR 131400Z 34004KT 9999 SCT025 22/12 Q1013 NOSIG
HEAR 131400Z 34004KT 9999 SCT025 22/12 Q1013 NOSIG

Airport on the map: